Terminal Aerodrome Forecast
Issued by NWS

Home | Current Version | Previous Version | Text Only | Print | Product List | Glossary On
Versions: 1 2 3 4 5 6 7 8 9 10 11 12 13 14 15 16 17
000
FTUS44 KCRP 011200 AAA
TAFALI
TAF AMD
KALI 011249Z 0113/0212 VRB03KT 3SM BR BKN005
      TEMPO 0113/0114 1SM BR OVC002
     FM011400 16005KT P6SM SCT015
     FM011600 16010KT P6SM SCT030
     FM020200 14010KT P6SM FEW015
     FM020600 14006KT P6SM FEW010
      TEMPO 0208/0212 BKN010=

USA.gov is the U.S. government's official web portal to all federal, state and local government web resources and services.